Página principal
METAR-TAF:

METAR-TAF

Aeroportos :

Victoria Falls, Zimbabwe

latitude: 18-06S, longitude: 025-51E, altura: 1061 m

Observação actual do tempo

O boletim foi feito há 1 hora e 20 minutos, às 07:00 UTC
Vento 7 kt de este, variando entre nordeste e es-sudeste
Temperatura 29°C
Humidade 52%
Pressão 1016 hPa
Visibilidade 10 km ou mais
sem nuvens abaixo de 1500 metros e sem cumulonimbus

METAR: FVFA 040700Z 08007KT 040V110 CAVOK 29/18 Q1016 NOSIG

Hora: 10:20 (08:20 UTC)


TAF: em falta

Observações e previsões do tempo de mais de 4000 aeroportos (mensagens METAR e TAF).

As estações disponíveis são os pontos amarelos e vermelhos sobre o mapa.

Mova o rato sobre o mapa para ver o nome da estação.

Depois clique no ponto para visualizar as observações e previsões meteorológicas.

Para alterar o mapa : clique nos botões verdes com uma cruz preta para aumentar o zoom; no botão verde com uma pitada de zoom; ou nas setas verdes para mapas adjacentes.


METAR-TAF: